Time;durP1;ratioP1;P1;durP2;ratioP2;P2;SDS_P1;SDS_P2;PMS_P1;PMS_P2;Temp;Humidity;BMP_temperature;BMP_pressure;BME280_temperature;BME280_humidity;BME280_pressure;Samples;Min_cycle;Max_cycle;Signal;HPM_P1;HPM_P2
2021/12/31 00:00:28;;;;;;;;;7.75;7.00;;;;;13.86;74.35;101636.22;5088200;28;45583;-63
2021/12/31 00:02:53;;;;;;;;;14.33;9.00;;;;;13.97;74.53;101658.94;5087481;28;45261;-62
2021/12/31 00:05:18;;;;;;;;;7.67;6.33;;;;;13.97;74.09;101656.25;5091949;28;45869;-62
2021/12/31 00:07:45;;;;;;;;;13.25;12.00;;;;;13.97;74.84;101647.25;5083737;28;45239;-62
2021/12/31 00:10:11;;;;;;;;;11.25;9.50;;;;;13.95;74.41;101651.69;5072704;28;45480;-61
2021/12/31 00:12:40;;;;;;;;;14.75;12.75;;;;;13.93;74.51;101659.69;5077051;28;45427;-62
2021/12/31 00:15:05;;;;;;;;;9.00;9.00;;;;;13.77;74.58;101627.91;5073048;28;46668;-65
2021/12/31 00:17:30;;;;;;;;;11.00;10.00;;;;;13.75;74.42;101637.72;5080131;28;45329;-62
2021/12/31 00:20:16;;;;;;;;;11.75;9.50;;;;;13.83;74.71;101642.41;5071306;28;45543;-62
2021/12/31 00:25:10;;;;;;;;;11.25;10.00;;;;;13.76;74.40;101644.88;5074201;28;45558;-62
2021/12/31 00:27:36;;;;;;;;;12.50;8.00;;;;;13.72;74.68;101633.16;5056588;28;45591;-62
2021/12/31 00:30:02;;;;;;;;;14.00;10.00;;;;;13.76;74.66;101642.19;5073934;28;45517;-62
2021/12/31 00:32:28;;;;;;;;;9.75;9.75;;;;;13.75;74.19;101635.03;5082678;28;45493;-62
2021/12/31 00:34:53;;;;;;;;;4.00;3.00;;;;;13.75;74.37;101629.66;5089470;28;46199;-62
2021/12/31 00:37:30;;;;;;;;;7.75;7.75;;;;;13.70;74.38;101631.31;5084445;28;47387;-61
2021/12/31 00:39:56;;;;;;;;;11.75;8.50;;;;;13.69;74.16;101621.41;5085010;28;45487;-60
2021/12/31 00:42:22;;;;;;;;;9.75;7.75;;;;;13.70;73.73;101625.94;5086948;28;45151;-63
2021/12/31 00:44:47;;;;;;;;;11.25;9.50;;;;;13.70;73.63;101632.22;5091287;28;44996;-61
2021/12/31 00:47:13;;;;;;;;;9.50;8.50;;;;;13.74;74.29;101641.25;5082649;28;44958;-62
2021/12/31 00:49:39;;;;;;;;;10.00;10.00;;;;;13.73;74.17;101643.03;5089124;28;45339;-60
2021/12/31 00:52:04;;;;;;;;;11.75;10.25;;;;;13.71;73.99;101644.78;5082779;28;45456;-63
2021/12/31 00:54:29;;;;;;;;;12.75;8.75;;;;;13.69;73.77;101641.13;5076762;28;45962;-61
2021/12/31 00:57:02;;;;;;;;;8.00;8.00;;;;;13.54;73.97;101612.06;5071599;27;45563;-63
2021/12/31 00:59:28;;;;;;;;;13.50;8.50;;;;;13.64;73.50;101632.97;5060244;28;45526;-62
2021/12/31 01:01:53;;;;;;;;;10.25;9.00;;;;;13.67;73.96;101636.59;5077373;28;45298;-61
2021/12/31 01:04:21;;;;;;;;;9.75;7.75;;;;;13.67;73.32;101633.91;5074827;28;45440;-62
2021/12/31 01:06:50;;;;;;;;;10.25;8.25;;;;;13.67;73.68;101633.91;5074812;28;45484;-62
2021/12/31 01:09:15;;;;;;;;;12.75;9.00;;;;;13.67;73.80;101626.75;5073736;28;45375;-62
2021/12/31 01:11:43;;;;;;;;;14.50;12.00;;;;;13.69;73.29;101618.72;5074505;28;45760;-61
2021/12/31 01:14:19;;;;;;;;;8.33;8.00;;;;;13.69;73.14;101634.84;5073403;28;46111;-62
2021/12/31 01:16:49;;;;;;;;;9.00;9.00;;;;;13.68;73.49;101623.22;5082367;28;45400;-60
2021/12/31 01:21:40;;;;;;;;;10.50;7.75;;;;;13.50;72.98;101586.00;5085148;28;45420;-61
2021/12/31 01:24:06;;;;;;;;;11.75;10.00;;;;;13.68;72.66;101620.53;5075846;28;46366;-61
2021/12/31 01:26:32;;;;;;;;;10.50;7.75;;;;;13.58;72.63;101597.88;5076444;28;45412;-63
2021/12/31 01:28:58;;;;;;;;;15.00;10.00;;;;;13.68;72.72;101606.16;5076738;28;45542;-62
2021/12/31 01:31:24;;;;;;;;;12.00;10.75;;;;;13.70;72.44;101607.13;5079042;28;45536;-61
2021/12/31 01:33:50;;;;;;;;;10.00;9.75;;;;;13.60;72.98;101593.44;5086826;28;45950;-63
2021/12/31 01:36:15;;;;;;;;;12.75;11.75;;;;;13.68;72.59;101609.78;5077458;28;45402;-61
2021/12/31 01:38:41;;;;;;;;;13.50;12.75;;;;;13.66;72.47;101622.25;5080898;28;45402;-62
2021/12/31 01:41:06;;;;;;;;;9.50;7.50;;;;;13.67;72.69;101615.09;5077792;28;45256;-63
2021/12/31 01:43:32;;;;;;;;;14.25;11.00;;;;;13.69;72.34;101626.78;5061660;28;47469;-61
2021/12/31 01:45:59;;;;;;;;;12.50;11.25;;;;;13.69;72.18;101635.75;5075929;28;45523;-63
2021/12/31 01:48:47;;;;;;;;;13.00;11.00;;;;;13.70;72.31;101637.56;5077105;28;45507;-62
2021/12/31 01:51:12;;;;;;;;;10.00;9.25;;;;;13.68;72.05;101631.25;5076431;28;45296;-63
2021/12/31 01:53:37;;;;;;;;;13.75;11.50;;;;;13.72;72.40;101640.31;5081756;28;48633;-63
2021/12/31 01:56:04;;;;;;;;;15.25;12.75;;;;;13.76;72.02;101644.88;5085133;28;45398;-61
2021/12/31 01:58:30;;;;;;;;;8.75;8.75;;;;;13.75;72.12;101638.59;5080528;27;45280;-62
2021/12/31 02:00:58;;;;;;;;;10.75;10.75;;;;;13.80;72.05;101633.38;5080157;28;45509;-60
2021/12/31 02:03:24;;;;;;;;;12.00;9.50;;;;;13.80;71.42;101636.97;5075737;28;46047;-61
2021/12/31 02:05:50;;;;;;;;;17.50;12.75;;;;;13.77;71.85;101633.28;5076196;28;45372;-63
2021/12/31 02:08:18;;;;;;;;;8.75;8.75;;;;;13.76;71.65;101637.75;5075579;28;45255;-62
2021/12/31 02:10:43;;;;;;;;;9.00;9.00;;;;;13.75;71.74;101638.59;5078944;28;45546;-60
2021/12/31 02:13:10;;;;;;;;;9.75;9.75;;;;;13.73;71.44;101634.09;5075049;28;45997;-62
2021/12/31 02:15:35;;;;;;;;;16.25;16.25;;;;;13.66;71.62;101619.59;5060448;28;45470;-62
2021/12/31 02:18:03;;;;;;;;;13.00;10.75;;;;;13.54;71.71;101595.94;5065433;28;45598;-61
2021/12/31 02:20:40;;;;;;;;;10.00;8.25;;;;;13.65;71.70;101612.38;5076175;28;45490;-62
2021/12/31 02:23:07;;;;;;;;;13.25;10.25;;;;;13.65;71.83;101617.75;5075770;28;46018;-62
2021/12/31 02:25:35;;;;;;;;;14.00;12.00;;;;;13.61;71.18;101611.38;5077993;28;45296;-63
2021/12/31 02:28:01;;;;;;;;;16.75;10.50;;;;;13.64;71.24;101618.59;5080812;28;45679;-62
2021/12/31 02:30:28;;;;;;;;;12.50;11.00;;;;;13.65;71.12;101617.75;5090262;28;45627;-62
2021/12/31 02:32:53;;;;;;;;;10.50;10.50;;;;;13.65;71.14;101612.38;5086467;28;45476;-61
2021/12/31 02:35:19;;;;;;;;;12.25;9.75;;;;;13.64;70.56;101611.47;5079004;28;47406;-63
2021/12/31 02:37:44;;;;;;;;;12.50;10.25;;;;;13.65;71.17;101620.44;5075073;28;45439;-61
2021/12/31 02:40:14;;;;;;;;;8.50;8.25;;;;;13.64;70.81;101615.91;5075018;28;45509;-62
2021/12/31 02:42:40;;;;;;;;;13.00;10.75;;;;;13.59;71.08;101602.34;5074875;28;46069;-61
2021/12/31 02:45:08;;;;;;;;;11.75;10.50;;;;;13.58;71.24;101597.88;5075294;28;45332;-63
2021/12/31 02:47:34;;;;;;;;;13.50;10.50;;;;;13.49;71.04;101602.97;5075032;28;45504;-60
2021/12/31 02:50:02;;;;;;;;;9.25;9.25;;;;;13.47;71.50;101593.06;5075017;28;45385;-63
2021/12/31 02:52:28;;;;;;;;;10.75;9.50;;;;;13.49;71.03;101586.88;5073970;28;46223;-63
2021/12/31 02:54:57;;;;;;;;;10.50;8.00;;;;;13.49;70.71;101581.50;5074663;28;45208;-60
2021/12/31 02:57:23;;;;;;;;;9.75;9.00;;;;;13.32;70.75;101554.19;5065268;27;45400;-61
2021/12/31 02:59:49;;;;;;;;;9.00;8.75;;;;;13.45;70.95;101583.19;5075998;28;45481;-61
2021/12/31 03:02:20;;;;;;;;;12.25;8.25;;;;;13.44;70.22;101581.38;5074621;28;46059;-60
2021/12/31 03:04:46;;;;;;;;;9.00;8.75;;;;;13.35;71.16;101562.34;5074894;28;45343;-61
2021/12/31 03:07:13;;;;;;;;;10.75;9.50;;;;;13.45;71.21;101576.94;5071240;28;45586;-60
2021/12/31 03:09:46;;;;;;;;;13.75;9.50;;;;;13.45;70.27;101580.50;5075559;28;45385;-61
2021/12/31 03:12:13;;;;;;;;;9.50;8.75;;;;;13.44;70.38;101586.72;5074732;28;45981;-60
2021/12/31 03:14:41;;;;;;;;;9.00;8.00;;;;;13.26;70.26;101559.34;5074217;28;45495;-60
2021/12/31 03:17:07;;;;;;;;;10.75;9.25;;;;;13.40;70.24;101583.94;5070764;28;45595;-62
2021/12/31 03:19:32;;;;;;;;;6.75;6.75;;;;;13.40;70.32;101589.31;5055075;28;45311;-62
2021/12/31 03:21:58;;;;;;;;;8.75;7.25;;;;;13.42;69.80;101606.38;5058046;28;45912;-60
2021/12/31 03:24:23;;;;;;;;;9.25;7.00;;;;;13.44;70.34;101607.31;5074357;28;45255;-62
2021/12/31 03:26:48;;;;;;;;;7.50;6.75;;;;;13.45;69.43;101609.13;5074374;28;45247;-61
2021/12/31 03:29:14;;;;;;;;;9.33;7.00;;;;;13.44;69.01;101618.94;5075475;28;45488;-61
2021/12/31 03:31:39;;;;;;;;;7.75;6.00;;;;;13.38;69.57;101639.34;5073648;28;46109;-62
2021/12/31 03:34:04;;;;;;;;;11.00;7.33;;;;;13.32;69.53;101649.88;5083799;28;45369;-61
2021/12/31 03:36:30;;;;;;;;;6.67;5.00;;;;;13.30;69.57;101651.59;5074072;28;45710;-61
2021/12/31 03:38:55;;;;;;;;;10.50;7.75;;;;;13.28;68.90;101656.91;5073420;28;45477;-61
2021/12/31 03:41:20;;;;;;;;;6.25;6.25;;;;;13.28;68.61;101652.47;5075360;28;46123;-61
2021/12/31 03:43:46;;;;;;;;;7.00;6.67;;;;;13.30;69.81;101638.16;5074123;28;45372;-61
2021/12/31 03:46:11;;;;;;;;;5.00;5.00;;;;;13.21;69.16;101604.81;5074058;28;45429;-60
2021/12/31 03:48:37;;;;;;;;;7.25;6.00;;;;;13.32;68.71;101606.94;5074771;28;45343;-62
2021/12/31 03:51:02;;;;;;;;;6.00;5.00;;;;;13.33;69.19;101598.03;5078150;28;46191;-61
2021/12/31 03:53:27;;;;;;;;;10.00;8.00;;;;;13.31;68.67;101589.91;5077578;28;45567;-61
2021/12/31 03:55:53;;;;;;;;;6.33;6.33;;;;;13.32;69.21;101590.84;5074318;28;45556;-60
2021/12/31 03:58:18;;;;;;;;;5.33;3.00;;;;;13.32;69.15;101590.84;5074376;27;45543;-62
2021/12/31 04:00:45;;;;;;;;;6.50;5.50;;;;;13.29;68.65;101591.63;5074554;28;46350;-60
2021/12/31 04:03:12;;;;;;;;;8.00;5.00;;;;;13.17;68.95;101565.38;5075371;28;45290;-62
2021/12/31 04:05:39;;;;;;;;;5.67;5.67;;;;;13.18;69.12;101574.31;5074577;28;45383;-62
2021/12/31 04:08:08;;;;;;;;;6.00;6.00;;;;;13.20;69.00;101578.88;5083612;28;45417;-61
2021/12/31 04:10:34;;;;;;;;;4.33;4.33;;;;;13.16;68.53;101558.16;5074534;28;45314;-61
2021/12/31 04:12:59;;;;;;;;;5.50;5.50;;;;;13.12;68.22;101550.91;5074044;28;45324;-62
2021/12/31 04:15:25;;;;;;;;;5.25;5.25;;;;;13.26;68.37;101560.28;5053051;28;45604;-62
2021/12/31 04:17:51;;;;;;;;;6.00;5.67;;;;;13.14;68.93;101556.31;5074136;28;45484;-62
2021/12/31 04:20:24;;;;;;;;;8.50;6.50;;;;;13.24;69.15;101582.56;5074099;28;45477;-60
2021/12/31 04:22:54;;;;;;;;;6.00;4.00;;;;;13.13;69.03;101563.44;5070801;28;45601;-64
2021/12/31 04:25:21;;;;;;;;;6.75;5.00;;;;;12.84;68.03;101500.94;5065667;28;45591;-63
2021/12/31 04:27:46;;;;;;;;;6.67;5.00;;;;;13.23;68.68;101565.56;5073469;28;45456;-62
2021/12/31 04:30:12;;;;;;;;;4.00;4.00;;;;;13.25;68.18;101558.44;5074195;28;46088;-61
2021/12/31 04:32:39;;;;;;;;;4.75;4.75;;;;;13.27;67.85;101561.19;5074416;28;45396;-61
2021/12/31 04:35:06;;;;;;;;;3.00;3.00;;;;;13.24;68.87;101561.09;5075942;28;45405;-62
2021/12/31 04:37:31;;;;;;;;;7.75;4.25;;;;;13.23;67.84;101561.94;5073855;28;44759;-61
2021/12/31 04:39:57;;;;;;;;;5.50;4.50;;;;;13.20;68.39;101556.47;5073633;28;45774;-61
2021/12/31 04:42:22;;;;;;;;;8.75;6.50;;;;;13.19;67.94;101546.63;5075940;28;45578;-63
2021/12/31 04:44:47;;;;;;;;;7.50;5.75;;;;;13.19;67.99;101552.00;5073788;28;45447;-60
2021/12/31 04:47:13;;;;;;;;;6.00;6.00;;;;;13.19;67.78;101550.22;5075099;28;45486;-61
2021/12/31 04:49:38;;;;;;;;;9.25;7.25;;;;;13.18;68.60;101552.84;5077144;28;46285;-61
2021/12/31 04:52:04;;;;;;;;;6.00;6.00;;;;;13.18;68.25;101564.50;5076406;28;45351;-61
2021/12/31 04:54:29;;;;;;;;;9.25;6.25;;;;;13.12;68.49;101572.38;5076658;28;45319;-61
2021/12/31 04:56:56;;;;;;;;;10.00;7.50;;;;;13.09;68.52;101562.44;5076022;27;45503;-63
2021/12/31 04:59:22;;;;;;;;;7.00;7.00;;;;;13.05;69.26;101573.03;5077184;28;46117;-62
2021/12/31 05:01:48;;;;;;;;;6.00;6.00;;;;;13.05;69.03;101576.66;5077001;28;45486;-61
2021/12/31 05:04:14;;;;;;;;;7.25;7.25;;;;;13.07;68.63;101568.66;5076333;28;45615;-61
2021/12/31 05:06:40;;;;;;;;;10.00;8.00;;;;;13.07;69.07;101565.97;5076843;28;45645;-62
2021/12/31 05:09:05;;;;;;;;;6.33;6.33;;;;;13.06;68.79;101573.09;5077078;28;46584;-62
2021/12/31 05:11:31;;;;;;;;;8.75;6.00;;;;;13.01;69.16;101572.06;5077036;28;45313;-61
2021/12/31 05:13:57;;;;;;;;;6.25;6.25;;;;;12.97;69.36;101561.19;5075823;28;45398;-61
2021/12/31 05:16:22;;;;;;;;;4.67;4.67;;;;;12.72;68.96;101513.09;5076459;28;45504;-61
2021/12/31 05:18:47;;;;;;;;;5.00;5.00;;;;;13.02;69.21;101568.50;5076783;28;46193;-63
2021/12/31 05:21:13;;;;;;;;;9.00;7.75;;;;;13.01;68.54;101566.69;5076816;28;45376;-62
2021/12/31 05:23:38;;;;;;;;;6.00;6.00;;;;;12.83;69.41;101534.84;5076173;28;45465;-61
2021/12/31 05:26:04;;;;;;;;;10.00;7.25;;;;;12.94;68.95;101539.66;5069924;28;45456;-60
2021/12/31 05:28:32;;;;;;;;;6.00;6.00;;;;;13.01;68.64;101557.75;5076016;28;45674;-60
2021/12/31 05:30:57;;;;;;;;;6.75;6.75;;;;;12.96;68.48;101565.66;5076485;28;45624;-61
2021/12/31 05:33:23;;;;;;;;;11.00;5.33;;;;;12.81;68.71;101539.28;5079054;28;45677;-62
2021/12/31 05:35:48;;;;;;;;;9.50;7.50;;;;;12.92;68.74;101547.66;5076587;28;45421;-62
2021/12/31 05:38:13;;;;;;;;;6.25;5.50;;;;;12.95;68.56;101541.44;5076255;28;46181;-62
2021/12/31 05:40:38;;;;;;;;;6.50;6.50;;;;;12.61;68.91;101487.75;5076735;28;45466;-60
2021/12/31 05:43:04;;;;;;;;;6.25;6.00;;;;;12.96;69.30;101533.47;5075856;28;45508;-62
2021/12/31 05:45:29;;;;;;;;;6.00;6.00;;;;;12.96;68.55;101533.47;5076305;28;45501;-62
2021/12/31 05:47:55;;;;;;;;;5.25;5.25;;;;;12.95;69.03;101531.66;5075741;28;46451;-60
2021/12/31 05:50:29;;;;;;;;;6.75;5.00;;;;;12.93;69.38;101528.00;5076299;28;45319;-61
2021/12/31 05:52:56;;;;;;;;;9.75;6.50;;;;;12.87;68.71;101520.69;5074811;28;45461;-63
2021/12/31 05:55:21;;;;;;;;;7.50;7.50;;;;;12.91;69.09;101503.81;5068728;28;45428;-62
2021/12/31 05:57:47;;;;;;;;;7.00;7.00;;;;;12.90;69.26;101511.81;5074989;27;45446;-61
2021/12/31 06:00:12;;;;;;;;;8.75;8.00;;;;;12.47;68.95;101448.88;5075981;28;45596;-61
2021/12/31 06:02:38;;;;;;;;;8.50;7.75;;;;;12.84;68.93;101525.06;5075888;28;45564;-60
2021/12/31 06:05:04;;;;;;;;;9.00;9.00;;;;;12.80;69.13;101517.78;5076328;28;45465;-61
2021/12/31 06:07:29;;;;;;;;;8.00;8.00;;;;;12.69;68.89;101498.72;5076148;28;47239;-61
2021/12/31 06:09:54;;;;;;;;;8.25;8.25;;;;;12.84;68.78;101534.00;5075702;28;45440;-61
2021/12/31 06:12:23;;;;;;;;;11.00;7.00;;;;;12.87;68.70;101541.25;5075708;28;45375;-61
2021/12/31 06:14:48;;;;;;;;;9.25;8.25;;;;;12.90;69.39;101554.72;5079188;28;45490;-62
2021/12/31 06:17:13;;;;;;;;;7.75;6.50;;;;;12.89;69.06;101555.59;5049350;28;46097;-63
2021/12/31 06:19:39;;;;;;;;;9.00;8.75;;;;;12.57;68.46;101504.56;5076819;28;45418;-61
2021/12/31 06:22:04;;;;;;;;;8.00;6.25;;;;;12.91;68.98;101556.56;5075193;28;45292;-62
2021/12/31 06:24:30;;;;;;;;;10.25;9.25;;;;;12.94;68.71;101563.78;5075465;28;45620;-62
2021/12/31 06:26:55;;;;;;;;;6.25;6.00;;;;;12.94;68.25;101547.69;5074798;28;46363;-61
2021/12/31 06:29:20;;;;;;;;;5.25;5.25;;;;;12.97;68.47;101545.09;5075607;28;45407;-60
2021/12/31 06:31:46;;;;;;;;;8.25;7.25;;;;;12.96;68.60;101552.22;5085493;28;45330;-62
2021/12/31 06:34:11;;;;;;;;;5.00;5.00;;;;;12.98;68.36;101557.63;5085429;28;44839;-61
2021/12/31 06:36:37;;;;;;;;;8.00;7.50;;;;;12.53;68.30;101478.56;5092346;28;45316;-63
2021/12/31 06:39:03;;;;;;;;;12.00;9.75;;;;;12.99;67.75;101563.06;5092886;28;45253;-62
2021/12/31 06:41:29;;;;;;;;;7.50;7.50;;;;;13.00;68.43;101554.16;5092713;28;45106;-62
2021/12/31 06:43:54;;;;;;;;;11.25;10.75;;;;;12.78;69.01;101512.38;5093225;28;45129;-64
2021/12/31 06:46:20;;;;;;;;;9.00;7.75;;;;;12.96;69.00;101544.19;5074300;28;47913;-62
2021/12/31 06:48:46;;;;;;;;;7.50;7.50;;;;;12.92;68.26;101550.34;5092469;28;44917;-62
2021/12/31 06:51:11;;;;;;;;;5.75;5.00;;;;;12.94;68.19;101559.34;5092958;28;45182;-62
2021/12/31 06:53:37;;;;;;;;;6.00;6.00;;;;;12.80;68.86;101552.63;5093714;28;45052;-61
2021/12/31 06:56:02;;;;;;;;;8.00;6.00;;;;;12.83;68.80;101574.19;5091112;28;45120;-60
2021/12/31 06:58:28;;;;;;;;;8.75;5.50;;;;;12.78;68.00;101551.69;5094141;27;45328;-60
2021/12/31 07:00:53;;;;;;;;;9.75;6.75;;;;;12.75;68.49;101541.75;5090739;28;45326;-61
2021/12/31 07:03:18;;;;;;;;;9.50;7.75;;;;;12.73;69.36;101535.47;5093103;28;45088;-61
2021/12/31 07:05:44;;;;;;;;;5.50;5.00;;;;;12.72;68.68;101545.28;5092697;28;45168;-61
2021/12/31 07:08:11;;;;;;;;;8.00;5.25;;;;;12.73;68.53;101564.94;5077092;28;45712;-61
2021/12/31 07:10:36;;;;;;;;;9.00;7.50;;;;;12.73;69.01;101573.88;5073387;28;45808;-64
2021/12/31 07:13:10;;;;;;;;;8.00;5.75;;;;;12.37;68.40;101503.97;5083257;28;45268;-62
2021/12/31 07:15:39;;;;;;;;;8.00;8.00;;;;;12.70;68.81;101565.78;5092468;28;45654;-61
2021/12/31 07:18:04;;;;;;;;;6.50;6.00;;;;;12.74;69.74;101582.88;5090638;28;45055;-63
2021/12/31 07:20:30;;;;;;;;;7.75;7.75;;;;;12.72;69.30;101577.47;5091550;28;45116;-62
2021/12/31 07:22:55;;;;;;;;;6.00;4.25;;;;;12.72;69.37;101574.78;5090832;28;45140;-61
2021/12/31 07:25:20;;;;;;;;;7.25;6.75;;;;;12.74;68.90;101574.81;5081678;28;45419;-61
2021/12/31 07:27:50;;;;;;;;;6.25;6.00;;;;;12.76;68.21;101596.31;5091481;28;45285;-62
2021/12/31 07:30:16;;;;;;;;;6.00;5.50;;;;;12.69;68.65;101597.91;5091362;28;45052;-62
2021/12/31 07:32:41;;;;;;;;;7.75;5.75;;;;;12.82;68.51;101607.22;5092286;28;45115;-62
2021/12/31 07:35:07;;;;;;;;;12.50;8.50;;;;;12.47;68.86;101527.53;5091564;28;47330;-62
2021/12/31 07:37:33;;;;;;;;;9.25;7.50;;;;;12.79;68.58;101602.69;5092145;28;44887;-60
2021/12/31 07:40:04;;;;;;;;;8.25;8.25;;;;;12.82;68.75;101602.78;5090315;28;45163;-61
2021/12/31 07:42:30;;;;;;;;;10.50;6.50;;;;;12.41;68.65;101519.31;5089890;28;44976;-65
2021/12/31 07:44:55;;;;;;;;;11.75;8.00;;;;;12.68;68.61;101556.75;5089438;28;45499;-61
2021/12/31 07:47:21;;;;;;;;;9.00;8.50;;;;;12.78;68.48;101573.13;5090613;28;45119;-61
2021/12/31 07:49:46;;;;;;;;;10.00;7.75;;;;;12.77;68.28;101574.00;5062572;28;45130;-61
2021/12/31 07:52:12;;;;;;;;;9.25;6.75;;;;;12.73;68.17;101571.22;5089803;28;45450;-61
2021/12/31 07:54:37;;;;;;;;;9.25;8.00;;;;;12.71;68.34;101569.38;5091715;28;45075;-60
2021/12/31 07:57:03;;;;;;;;;9.00;6.75;;;;;12.65;68.98;101575.44;5090691;27;45236;-61
2021/12/31 07:59:28;;;;;;;;;10.00;7.25;;;;;12.65;68.41;101587.94;5090932;28;45182;-61
2021/12/31 08:01:54;;;;;;;;;8.00;6.50;;;;;12.64;69.39;101586.13;5091424;28;45291;-63
2021/12/31 08:04:19;;;;;;;;;8.75;7.25;;;;;12.66;68.73;101587.97;5090264;28;45678;-62
2021/12/31 08:06:44;;;;;;;;;6.50;6.50;;;;;12.66;68.61;101577.25;5090455;28;44898;-62
2021/12/31 08:09:10;;;;;;;;;16.50;14.75;;;;;12.72;68.33;101590.88;5091077;28;45165;-62
2021/12/31 08:11:37;;;;;;;;;7.50;7.50;;;;;12.76;68.26;101596.31;5068779;28;45667;-61
2021/12/31 08:14:03;;;;;;;;;7.00;6.25;;;;;12.78;68.20;101602.63;5090121;28;45473;-61
2021/12/31 08:16:28;;;;;;;;;9.50;5.50;;;;;12.78;68.98;101608.91;5089509;28;45248;-61
2021/12/31 08:18:53;;;;;;;;;10.25;7.25;;;;;12.79;68.87;101613.41;5089828;28;45250;-62
2021/12/31 08:21:19;;;;;;;;;9.25;6.25;;;;;12.95;68.16;101632.66;5089572;27;45116;-63
2021/12/31 08:23:44;;;;;;;;;10.25;9.75;;;;;12.98;68.61;101630.06;5087832;28;45565;-61
2021/12/31 08:26:10;;;;;;;;;11.75;8.00;;;;;12.98;68.29;101614.88;5093923;28;44959;-61
2021/12/31 08:28:35;;;;;;;;;37.25;33.50;;;;;12.97;68.21;101621.13;5090422;28;45276;-62
2021/12/31 08:31:00;;;;;;;;;11.25;10.00;;;;;12.99;68.38;101618.50;5092679;28;45005;-61
2021/12/31 08:33:26;;;;;;;;;10.50;10.50;;;;;13.07;68.27;101616.94;5091469;28;45474;-63
2021/12/31 08:35:52;;;;;;;;;8.25;8.25;;;;;13.09;68.40;101604.47;5091749;28;45250;-63
2021/12/31 08:38:17;;;;;;;;;10.25;7.75;;;;;13.11;67.74;101604.53;5092937;28;45343;-66
2021/12/31 08:40:43;;;;;;;;;9.00;8.00;;;;;13.04;67.51;101598.97;5086796;28;45048;-65
2021/12/31 08:43:08;;;;;;;;;15.75;12.50;;;;;13.10;67.33;101630.47;5090968;28;45322;-63
2021/12/31 08:45:33;;;;;;;;;10.50;9.75;;;;;13.09;67.08;101618.78;5068306;28;45183;-64
2021/12/31 08:48:00;;;;;;;;;10.50;8.75;;;;;13.09;67.71;101615.22;5067803;28;45111;-66
2021/12/31 08:50:26;;;;;;;;;9.00;7.25;;;;;13.10;68.28;101617.03;5093835;28;45338;-62
2021/12/31 08:52:52;;;;;;;;;30.25;22.00;;;;;13.09;67.83;101612.53;5094371;28;45166;-61
2021/12/31 08:55:17;;;;;;;;;10.25;8.75;;;;;13.12;67.63;101604.56;5093292;28;44969;-63
2021/12/31 08:57:43;;;;;;;;;13.00;9.75;;;;;12.98;67.99;101587.16;5093664;27;44993;-62
2021/12/31 09:00:10;;;;;;;;;12.00;10.00;;;;;13.15;67.61;101626.13;5093662;28;45111;-62
2021/12/31 09:02:35;;;;;;;;;12.00;12.00;;;;;13.18;67.27;101636.03;5086654;28;46003;-64
2021/12/31 09:05:01;;;;;;;;;7.00;7.00;;;;;13.07;67.59;101620.53;5069414;28;45363;-65
2021/12/31 09:07:26;;;;;;;;;14.50;12.50;;;;;13.16;67.32;101635.09;5083888;28;45299;-62
2021/12/31 09:09:52;;;;;;;;;7.00;7.00;;;;;12.95;67.42;101585.31;5084696;28;45578;-62
2021/12/31 09:12:17;;;;;;;;;28.00;21.75;;;;;13.21;67.21;101641.50;5088937;28;45183;-62
2021/12/31 09:14:43;;;;;;;;;11.50;11.00;;;;;13.24;66.68;101661.28;5091360;28;45474;-62
2021/12/31 09:17:08;;;;;;;;;14.25;12.50;;;;;13.26;66.96;101653.28;5093568;28;45096;-64
2021/12/31 09:19:33;;;;;;;;;10.00;8.25;;;;;13.27;66.60;101657.78;5093587;28;45064;-62
2021/12/31 09:21:59;;;;;;;;;11.25;9.75;;;;;13.24;66.29;101641.59;5091977;28;45614;-62
2021/12/31 09:24:24;;;;;;;;;11.75;9.75;;;;;13.24;67.07;101636.22;5093338;28;45111;-62
2021/12/31 09:26:50;;;;;;;;;13.50;9.00;;;;;13.23;66.94;101629.97;5092276;28;45347;-63
2021/12/31 09:29:20;;;;;;;;;10.00;9.25;;;;;13.13;67.31;101626.94;5092318;28;44873;-63
2021/12/31 09:31:45;;;;;;;;;12.75;11.25;;;;;13.19;67.03;101651.28;5092447;27;45235;-63
2021/12/31 09:34:11;;;;;;;;;12.25;8.75;;;;;13.19;66.95;101659.34;5088418;28;45192;-63
2021/12/31 09:36:36;;;;;;;;;18.75;16.00;;;;;13.11;67.30;101634.03;5092341;28;44993;-63
2021/12/31 09:39:02;;;;;;;;;17.75;16.00;;;;;13.13;67.84;101641.25;5092029;28;45305;-64
2021/12/31 09:41:27;;;;;;;;;14.25;11.50;;;;;13.12;67.65;101643.91;5092800;28;45072;-64
2021/12/31 09:43:53;;;;;;;;;10.00;8.75;;;;;13.12;67.38;101655.56;5092327;28;45259;-63
2021/12/31 09:46:19;;;;;;;;;13.00;11.50;;;;;13.07;67.79;101674.19;5080140;28;45181;-61
2021/12/31 09:48:44;;;;;;;;;15.25;15.25;;;;;13.04;67.58;101675.88;5093689;28;45252;-63
2021/12/31 09:51:10;;;;;;;;;14.00;14.00;;;;;13.05;68.06;101680.34;5092458;28;46200;-63
2021/12/31 09:53:35;;;;;;;;;13.50;12.75;;;;;13.13;67.03;101696.69;5089021;28;44879;-62
2021/12/31 09:56:01;;;;;;;;;8.75;7.75;;;;;13.13;67.09;101708.34;5079406;28;45219;-63
2021/12/31 09:58:27;;;;;;;;;12.50;10.00;;;;;13.18;67.12;101706.72;5083647;28;45336;-62
2021/12/31 10:01:00;;;;;;;;;13.00;11.25;;;;;13.26;67.49;101713.25;5092591;28;45555;-62
2021/12/31 10:03:28;;;;;;;;;18.50;13.75;;;;;13.32;67.79;101703.56;5093268;28;45100;-62
2021/12/31 10:06:05;;;;;;;;;12.00;10.00;;;;;13.40;66.78;101702.06;5074690;28;45042;-62
2021/12/31 10:08:41;;;;;;;;;15.25;14.25;;;;;13.49;66.75;101696.03;5092825;28;45105;-62
2021/12/31 10:11:11;;;;;;;;;10.75;8.75;;;;;13.50;67.03;101693.41;5092943;28;46589;-62
2021/12/31 10:13:46;;;;;;;;;11.25;10.00;;;;;13.54;66.87;101719.47;5092823;28;45021;-62
2021/12/31 10:16:26;;;;;;;;;13.50;12.50;;;;;13.62;66.84;101714.31;5092922;28;44996;-61
2021/12/31 10:19:11;;;;;;;;;13.25;10.50;;;;;13.64;66.61;101702.78;5093792;28;44725;-62
2021/12/31 10:21:49;;;;;;;;;11.25;11.25;;;;;13.56;66.54;101687.28;5093422;28;45721;-63
2021/12/31 10:24:38;;;;;;;;;11.00;10.75;;;;;13.75;66.15;101716.50;5073915;28;44987;-61
2021/12/31 10:27:09;;;;;;;;;18.00;15.00;;;;;13.78;65.79;101719.28;5093039;28;45045;-64
2021/12/31 10:29:53;;;;;;;;;14.00;13.25;;;;;13.81;66.45;101718.47;5092690;28;44988;-63
2021/12/31 10:32:19;;;;;;;;;20.25;16.00;;;;;13.86;66.31;101718.56;5092007;28;45686;-64
2021/12/31 10:34:45;;;;;;;;;5.50;5.50;;;;;13.89;66.46;101724.97;5089943;28;44986;-62
2021/12/31 10:37:17;;;;;;;;;12.00;12.00;;;;;13.91;66.19;101738.41;5092541;27;45161;-62
2021/12/31 10:39:43;;;;;;;;;13.50;11.25;;;;;13.95;66.30;101749.28;5088056;28;45285;-62
2021/12/31 10:42:11;;;;;;;;;10.75;10.00;;;;;14.03;65.99;101759.38;5088102;28;45630;-62
2021/12/31 10:44:54;;;;;;;;;8.67;8.00;;;;;14.09;65.74;101783.72;5091892;27;45017;-62
2021/12/31 10:47:38;;;;;;;;;9.00;7.67;;;;;13.91;65.53;101746.47;5091776;28;45298;-62
2021/12/31 10:50:03;;;;;;;;;7.75;7.75;;;;;14.19;65.56;101802.84;5091120;28;44614;-62
2021/12/31 10:52:59;;;;;;;;;7.00;6.00;;;;;14.24;65.60;101783.22;5090994;28;45540;-62
2021/12/31 10:55:30;;;;;;;;;9.00;8.00;;;;;14.29;65.53;101773.53;5086879;28;45373;-63
2021/12/31 10:58:01;;;;;;;;;9.00;8.33;;;;;14.32;65.02;101769.16;5089865;28;45037;-63
2021/12/31 11:00:30;;;;;;;;;14.00;8.00;;;;;13.98;64.85;101705.50;5090604;27;44929;-62
2021/12/31 11:02:56;;;;;;;;;8.00;6.33;;;;;14.11;65.22;101709.44;5089409;28;45982;-63
2021/12/31 11:05:23;;;;;;;;;9.25;9.25;;;;;14.44;64.91;101763.19;5089891;28;45354;-62
2021/12/31 11:07:50;;;;;;;;;8.67;7.00;;;;;14.50;64.94;101768.75;5089548;28;45048;-62
2021/12/31 11:10:18;;;;;;;;;10.50;8.75;;;;;14.56;64.79;101776.94;5090033;28;45141;-63
2021/12/31 11:12:47;;;;;;;;;21.50;20.00;;;;;14.61;64.53;101777.13;5090014;28;45262;-64
2021/12/31 11:15:14;;;;;;;;;12.75;11.75;;;;;14.65;64.43;101770.97;5088852;28;45083;-62
2021/12/31 11:17:40;;;;;;;;;12.33;9.00;;;;;14.70;64.45;101771.06;5089133;28;45021;-63
2021/12/31 11:20:08;;;;;;;;;9.25;6.25;;;;;14.74;64.44;101756.84;5087132;28;44992;-64
2021/12/31 11:22:34;;;;;;;;;11.00;7.25;;;;;14.78;63.98;101765.88;5088316;28;44986;-63